ADDS METAR Data INFO
IDs: Format: Raw Decoded Include TAF

Data at: 0918 UTC 13 Dec 2017

KSLB 130915Z AUTO 25013KT 10SM CLR 02/M05 A2952 RMK AO2
KSLB 130855Z AUTO 25014KT 10SM CLR 02/M05 A2952 RMK AO2
KSLB 130835Z AUTO 25014KT 10SM CLR 01/M05 A2953 RMK AO2
KSLB 130815Z AUTO 24013KT 10SM CLR 01/M05 A2953 RMK AO2
KSLB 130755Z AUTO 24011KT 10SM CLR 01/M05 A2954 RMK AO2
KSLB 130735Z AUTO 24011KT 10SM CLR 01/M05 A2956 RMK AO2
KSLB 130715Z AUTO 23010KT 10SM CLR 01/M05 A2957 RMK AO2
KSLB 130655Z AUTO 23010G16KT 10SM CLR 01/M05 A2959 RMK AO2
KSLB 130635Z AUTO 24014KT 10SM CLR 01/M05 A2962 RMK AO2
KSLB 130615Z AUTO 24011KT 10SM CLR 01/M05 A2963 RMK AO2
KSLB 130555Z AUTO 24012KT 10SM CLR 01/M05 A2965 RMK AO2
KSLB 130535Z AUTO 23012G18KT 10SM CLR 01/M04 A2967 RMK AO2
KSLB 130515Z AUTO 22011KT 10SM CLR 01/M04 A2968 RMK AO2
KSLB 130455Z AUTO 22010KT 10SM CLR M00/M04 A2969 RMK AO2
KSLB 130435Z AUTO 22008KT 10SM CLR M00/M04 A2972 RMK AO2
KSLB 130415Z AUTO 23011KT 10SM CLR M00/M04 A2974 RMK AO2
KSLB 130355Z AUTO 22010KT 10SM CLR M00/M04 A2974 RMK AO2
KSLB 130335Z AUTO 22012KT 10SM CLR M00/M04 A2976 RMK AO2
KSLB 130315Z AUTO 22015KT 10SM CLR M00/M04 A2977 RMK AO2
KSLB 130255Z AUTO 22014G19KT 10SM CLR M00/M04 A2979 RMK AO2
KSLB 130235Z AUTO 22011KT 10SM CLR M01/M04 A2981 RMK AO2
KSLB 130215Z AUTO 22011KT 10SM CLR M02/M04 A2983 RMK AO2
KSLB 130155Z AUTO 21012KT 10SM CLR M02/M05 A2985 RMK AO2
KSLB 130135Z AUTO 21011KT 10SM CLR M02/M05 A2987 RMK AO2
KSLB 130115Z AUTO 21011KT 10SM CLR M02/M05 A2988 RMK AO2
KSLB 130055Z AUTO 22013KT 10SM CLR M02/M05 A2989 RMK AO2
KSLB 130035Z AUTO 21012KT 10SM CLR M02/M05 A2990 RMK AO2
KSLB 130015Z AUTO 21010KT 10SM CLR M02/M06 A2991 RMK AO2
KSLB 122355Z AUTO 21009KT 10SM CLR M02/M06 A2992 RMK AO2
KSLB 122335Z AUTO 21009KT 10SM CLR M02/M06 A2993 RMK AO2
KSLB 122315Z AUTO 23008KT 10SM CLR M01/M05 A2995 RMK AO2
KSLB 122255Z AUTO 24012KT 10SM CLR M00/M05 A2995 RMK AO2
KSLB 122235Z AUTO 22013KT 10SM CLR 00/M05 A2996 RMK AO2
KSLB 122215Z AUTO 24014KT 10SM CLR 01/M05 A2998 RMK AO2
KSLB 122155Z AUTO 24013KT 10SM CLR 02/M05 A3000 RMK AO2
KSLB 122135Z AUTO 24015KT 10SM CLR 02/M05 A3001 RMK AO2
KSLB 122115Z AUTO 23012KT 10SM CLR 02/M05 A3001 RMK AO2
KSLB 122055Z AUTO 24014KT 10SM CLR 02/M05 A3003 RMK AO2
KSLB 122035Z AUTO 24014KT 10SM CLR 03/M05 A3004 RMK AO2
KSLB 122015Z AUTO 26010G15KT 10SM CLR 02/M05 A3005 RMK AO2
KSLB 121955Z AUTO 26013KT 10SM CLR 02/M05 A3006 RMK AO2
KSLB 121935Z AUTO 24010KT 10SM SCT030 01/M06 A3008 RMK AO2
KSLB 121915Z AUTO 26011KT 10SM FEW030 M00/M07 A3010 RMK AO2
KSLB 121855Z AUTO 25013KT 10SM CLR M01/M08 A3012 RMK AO2
KSLB 121835Z AUTO 24011KT 10SM CLR M02/M08 A3013 RMK AO2
KSLB 121815Z AUTO 24011KT 10SM CLR M02/M08 A3014 RMK AO2
KSLB 121755Z AUTO 24012KT 10SM CLR M02/M08 A3014 RMK AO2
KSLB 121735Z AUTO 25009KT 10SM CLR M03/M08 A3017 RMK AO2
KSLB 121715Z AUTO 25009KT 10SM CLR M04/M08 A3020 RMK AO2
KSLB 121655Z AUTO VRB05KT 10SM CLR M05/M09 A3020 RMK AO2
KSLB 121635Z AUTO 27007KT 10SM CLR M05/M09 A3021 RMK AO2
KSLB 121615Z AUTO 27009KT 10SM CLR M06/M09 A3021 RMK AO2
KSLB 121555Z AUTO 28007KT 10SM CLR M07/M10 A3021 RMK AO2
KSLB 121535Z AUTO 29009KT 10SM CLR M08/M10 A3023 RMK AO2
KSLB 121515Z AUTO 30009KT 10SM CLR M09/M10 A3024 RMK AO2
KSLB 121455Z AUTO 27009KT 10SM CLR M10/M11 A3024 RMK AO2
KSLB 121435Z AUTO 29008KT 10SM CLR M11/M12 A3024 RMK AO2
KSLB 121415Z AUTO 30009KT 10SM CLR M11/M12 A3025 RMK AO2
KSLB 121355Z AUTO 29009KT 10SM CLR M12/M13 A3025 RMK AO2
KSLB 121335Z AUTO 29010KT 10SM CLR M12/M13 A3025 RMK AO2
KSLB 121315Z AUTO 28009KT 10SM CLR M12/M13 A3027 RMK AO2
KSLB 121255Z AUTO 28009KT 10SM CLR M12/M13 A3026 RMK AO2
KSLB 121235Z AUTO 28009KT 10SM CLR M12/M13 A3027 RMK AO2
KSLB 121215Z AUTO 29010KT 10SM CLR M12/M13 A3026 RMK AO2
KSLB 121155Z AUTO 30011KT 10SM CLR M11/M12 A3026 RMK AO2
KSLB 121135Z AUTO 30010KT 10SM CLR M11/M13 A3026 RMK AO2
KSLB 121115Z AUTO 31010KT 10SM CLR M11/M13 A3026 RMK AO2
KSLB 121055Z AUTO 30010KT 10SM CLR M11/M13 A3026 RMK AO2
KSLB 121035Z AUTO 30011KT 10SM CLR M11/M13 A3027 RMK AO2
KSLB 121015Z AUTO 29009KT 10SM CLR M12/M13 A3027 RMK AO2
KSLB 120955Z AUTO 30010KT 10SM CLR M11/M13 A3028 RMK AO2
KSLB 120935Z AUTO 30009KT 10SM CLR M12/M13 A3028 RMK AO2
KSLB 120915Z AUTO 29009KT 10SM CLR M12/M14 A3028 RMK AO2
KSLB 120855Z AUTO 31010KT 10SM CLR M11/M13 A3028 RMK AO2
KSLB 120835Z AUTO 32010KT 10SM CLR M10/M13 A3028 RMK AO2
KSLB 120815Z AUTO 32010KT 10SM CLR M10/M13 A3028 RMK AO2
KSLB 120755Z AUTO 34011KT 10SM CLR M10/M13 A3028 RMK AO2
KSLB 120735Z AUTO 34013KT 10SM CLR M10/M12 A3028 RMK AO2
KSLB 120715Z AUTO 34012KT 10SM CLR M10/M13 A3028 RMK AO2
KSLB 120655Z AUTO 34013KT 10SM CLR M10/M13 A3028 RMK AO2
KSLB 120635Z AUTO 34012KT 10SM CLR M10/M13 A3028 RMK AO2
KSLB 120615Z AUTO 34013G19KT 10SM CLR M09/M13 A3029 RMK AO2
KSLB 120555Z AUTO 33014KT 10SM CLR M09/M13 A3029 RMK AO2
KSLB 120535Z AUTO 33014KT 10SM CLR M09/M12 A3029 RMK AO2
KSLB 120515Z AUTO 33011G16KT 10SM CLR M08/M12 A3029 RMK AO2
KSLB 120455Z AUTO 34015G21KT 10SM CLR M08/M12 A3028 RMK AO2
KSLB 120435Z AUTO 34015G21KT 10SM CLR M08/M11 A3027 RMK AO2
KSLB 120415Z AUTO 33015KT 10SM CLR M08/M11 A3026 RMK AO2
KSLB 120355Z AUTO 34014G20KT 10SM CLR M07/M11 A3026 RMK AO2
KSLB 120335Z AUTO 34014G23KT 10SM CLR M07/M10 A3026 RMK AO2
KSLB 120315Z AUTO 33016KT 10SM CLR M07/M10 A3026 RMK AO2
KSLB 120255Z AUTO 34015G23KT 10SM CLR M06/M09 A3024 RMK AO2
KSLB 120235Z AUTO 34016G23KT 10SM CLR M06/M09 A3022 RMK AO2
KSLB 120215Z AUTO 34021KT 10SM FEW019 M05/M08 A3021 RMK AO2
KSLB 120155Z AUTO 34018G24KT 10SM CLR M05/M08 A3020 RMK AO2
KSLB 120135Z AUTO 34022KT 10SM CLR M05/M07 A3020 RMK AO2
KSLB 120115Z AUTO 33020KT 10SM CLR M04/M07 A3018 RMK AO2
KSLB 120055Z AUTO 34019G27KT 10SM FEW020 M04/M07 A3017 RMK AO2
KSLB 120035Z AUTO 33023G29KT 10SM SCT020 M03/M07 A3016 RMK AO2
KSLB 120015Z AUTO 34023G32KT 10SM OVC020 M03/M07 A3015 RMK AO2
KSLB 112355Z AUTO 34020G27KT 10SM OVC020 M02/M06 A3013 RMK AO2
KSLB 112335Z AUTO 34019G24KT 10SM OVC021 M02/M06 A3011 RMK AO2
KSLB 112315Z AUTO 34021G32KT 10SM OVC021 M02/M06 A3010 RMK AO2
KSLB 112255Z AUTO 34020G29KT 10SM OVC022 M01/M05 A3010 RMK AO2
KSLB 112235Z AUTO 34024G33KT 10SM OVC019 M01/M05 A3009 RMK AO2
KSLB 112215Z AUTO 35023G31KT 10SM OVC018 M01/M04 A3007 RMK AO2
KSLB 112155Z AUTO 34021G32KT 10SM OVC016 M00/M04 A3005 RMK AO2
KSLB 112135Z AUTO 35022G31KT 10SM OVC015 00/M03 A3003 RMK AO2